Sumiha, Russia
Current Conditions -  °F | °C
As of 5:00 AM on Monday 24 Nov 2014 (Local Time) from USCC Reporting Station
Clear Clear  
Wind Chill: -29°   Ceiling: Unl
Heat Index: -9°   Visibility: 6mi
Dew Point: -17°   Wind: 11mph
Humidity: 71%   Direction: 300°WNW
Pressure: 30.53"   Gusts: NA
Location:  55.23°N, 63.32°E
Report Text: USCC 240000Z 30005MPS CAVOK M23/M27 Q1034 27000060 NOSIG RMKQFE755
Loading
Personal Weather Stations






























Interactive Weather Map New forecast layout! Learn more

10-Day Weather Forecast

Advertisements
Track Severe Weather on mobile